Date,TemperatureHighF,TemperatureAvgF,TemperatureLowF,DewpointHighF,DewpointAvgF,DewpointLowF,HumidityHigh,HumidityAvg,HumidityLow,PressureMaxIn,PressureMinIn,WindSpeedMaxMPH,WindSpeedAvgMPH,GustSpeedMaxMPH,PrecipitationSumIn
2013-1-1,33,26,14,28,15,3,87,63,41,29.90,29.63,16,7,25,0.00
2013-1-2,22,13,5,8,2,-6,80,60,44,30.07,29.86,13,6,21,0.00
2013-1-3,23,12,5,7,1,-5,83,62,44,30.13,29.98,10,3,19,0.00
2013-1-4,36,23,5,27,17,2,92,78,66,29.97,29.75,15,5,25,0.00
2013-1-5,36,30,16,29,19,11,83,63,43,30.30,29.75,13,6,21,0.00
2013-1-6,34,25,14,26,21,10,92,85,71,30.27,29.94,9,1,19,0.01
2013-1-7,28,23,16,26,18,12,94,81,60,30.44,29.97,13,4,20,0.00
2013-1-8,42,33,17,31,26,15,95,76,56,30.38,30.21,21,7,31,0.00
2013-1-9,44,33,20,39,28,18,93,84,70,30.44,29.90,14,4,30,0.00
2013-1-10,44,40,28,33,27,22,81,62,50,30.55,29.91,17,9,24,0.00
2013-1-11,40,32,26,35,24,20,83,74,54,30.57,30.28,6,2,15,0.00
2013-1-12,44,41,38,43,38,35,98,90,82,30.29,30.14,6,1,15,0.00
2013-1-13,48,44,39,48,43,39,100,99,98,30.18,29.98,11,5,15,0.00
2013-1-14,57,47,38,52,42,26,99,83,58,30.22,29.88,11,6,15,0.00
2013-1-15,39,34,30,28,25,22,85,69,57,30.34,30.23,6,2,13,0.00
2013-1-16,34,33,31,33,30,21,98,88,65,30.30,29.79,4,1,13,0.63
2013-1-17,39,30,17,35,23,1,97,78,48,30.16,29.79,10,4,16,0.00
2013-1-18,21,14,8,9,-1,-9,75,51,35,30.44,30.12,12,6,18,0.00
2013-1-19,43,35,21,32,24,9,80,66,59,30.40,29.90,21,8,24,0.00
2013-1-20,48,42,28,39,29,13,81,63,37,29.90,29.47,18,11,24,0.00
2013-1-21,27,22,15,18,7,-1,87,55,32,30.08,29.84,11,5,16,0.00
2013-1-22,20,15,10,16,6,-9,87,69,41,30.06,29.78,13,6,21,0.00
2013-1-23,9,4,1,-9,-13,-16,53,45,37,30.12,30.05,15,9,21,0.00
2013-1-24,13,6,-1,-7,-10,-14,60,48,32,30.14,29.96,17,10,28,0.00
2013-1-25,20,12,5,3,-2,-7,68,53,36,30.23,30.09,14,6,28,0.00
2013-1-26,22,15,9,2,-1,-5,61,49,33,30.15,30.00,14,7,28,0.00
2013-1-27,24,17,12,4,0,-3,59,47,34,30.44,30.14,14,7,28,0.00
2013-1-28,27,20,9,21,8,-3,94,63,31,30.46,30.10,7,2,21,0.06
2013-1-29,40,27,17,37,24,15,96,91,83,30.25,30.10,7,1,21,0.00
2013-1-30,53,46,38,52,46,37,99,97,90,30.18,29.49,16,10,24,0.15
2013-1-31,55,46,32,55,37,15,99,74,46,29.48,28.88,24,15,34,0.06